createdAt,value
2022-10-28T00:00:17.665Z,1016.30
2022-10-28T00:01:18.360Z,1016.27
2022-10-28T00:02:17.934Z,1016.24
2022-10-28T00:03:17.588Z,1016.25
2022-10-28T00:04:17.713Z,1016.18
2022-10-28T00:05:17.568Z,1016.20
2022-10-28T00:06:17.554Z,1016.12
2022-10-28T00:07:17.533Z,1016.14
2022-10-28T00:08:21.368Z,1016.16
2022-10-28T00:09:17.527Z,1016.13
2022-10-28T00:10:17.496Z,1016.12
2022-10-28T00:11:17.495Z,1016.11
2022-10-28T00:12:17.495Z,1016.06
2022-10-28T00:13:17.767Z,1016.06
2022-10-28T00:14:17.478Z,1016.07
2022-10-28T00:15:17.438Z,1016.02
2022-10-28T00:16:17.428Z,1016.10
2022-10-28T00:17:17.450Z,1016.11
2022-10-28T00:18:17.680Z,1016.09
2022-10-28T00:19:17.403Z,1016.08
2022-10-28T00:20:17.380Z,1016.12
2022-10-28T00:21:17.382Z,1016.11
2022-10-28T00:22:17.342Z,1016.10
2022-10-28T00:23:17.332Z,1016.04
2022-10-28T00:24:17.590Z,1016.02
2022-10-28T00:25:17.326Z,1016.02
2022-10-28T00:26:17.314Z,1016.01
2022-10-28T00:27:17.302Z,1016.04
2022-10-28T00:28:21.496Z,1016.04
2022-10-28T00:29:17.532Z,1015.97
2022-10-28T00:30:17.587Z,1015.90
2022-10-28T00:31:17.273Z,1015.91
2022-10-28T00:32:17.214Z,1015.92
2022-10-28T00:33:17.202Z,1015.92
2022-10-28T00:34:17.217Z,1015.94
2022-10-28T00:35:17.177Z,1015.88
2022-10-28T00:36:17.669Z,1015.85
2022-10-28T00:37:17.171Z,1015.87
2022-10-28T00:38:17.193Z,1015.85
2022-10-28T00:39:17.124Z,1015.83
2022-10-28T00:40:17.118Z,1015.83
2022-10-28T00:41:17.099Z,1015.83
2022-10-28T00:42:17.098Z,1015.81
2022-10-28T00:43:17.161Z,1015.84
2022-10-28T00:44:17.087Z,1015.82
2022-10-28T00:45:17.640Z,1015.89
2022-10-28T00:46:17.083Z,1015.83
2022-10-28T00:47:20.963Z,1015.81
2022-10-28T00:48:17.020Z,1015.80
2022-10-28T00:49:17.380Z,1015.83
2022-10-28T00:50:17.252Z,1015.76
2022-10-28T00:51:21.073Z,1015.78
2022-10-28T00:52:16.981Z,1015.79
2022-10-28T00:53:16.969Z,1015.81
2022-10-28T00:54:16.936Z,1015.80
2022-10-28T00:55:17.623Z,1015.67
2022-10-28T00:56:20.876Z,1015.71
2022-10-28T00:57:16.913Z,1015.75
2022-10-28T00:58:16.955Z,1015.64
2022-10-28T00:59:16.864Z,1015.68
2022-10-28T01:00:16.974Z,1015.62
2022-10-28T01:01:16.892Z,1015.59
2022-10-28T01:02:16.960Z,1015.62
2022-10-28T01:03:16.828Z,1015.59
2022-10-28T01:04:16.812Z,1015.58
2022-10-28T01:05:17.359Z,1015.55
2022-10-28T01:06:16.798Z,1015.66
2022-10-28T01:07:17.616Z,1015.64
2022-10-28T01:08:16.761Z,1015.63
2022-10-28T01:09:16.795Z,1015.60
2022-10-28T01:10:16.747Z,1015.62
2022-10-28T01:11:17.529Z,1015.63
2022-10-28T01:12:16.748Z,1015.55
2022-10-28T01:13:16.700Z,1015.57
2022-10-28T01:14:16.701Z,1015.58
2022-10-28T01:15:16.671Z,1015.57
2022-10-28T01:16:16.653Z,1015.58
2022-10-28T01:17:16.899Z,1015.53
2022-10-28T01:18:17.700Z,1015.54
2022-10-28T01:19:16.628Z,1015.52
2022-10-28T01:20:16.631Z,1015.58
2022-10-28T01:21:16.592Z,1015.57
2022-10-28T01:22:16.577Z,1015.54
2022-10-28T01:23:16.922Z,1015.57
2022-10-28T01:24:16.573Z,1015.58
2022-10-28T01:25:16.545Z,1015.65
2022-10-28T01:26:16.537Z,1015.60
2022-10-28T01:27:16.508Z,1015.56
2022-10-28T01:28:16.515Z,1015.57
2022-10-28T01:29:16.496Z,1015.58
2022-10-28T01:30:16.505Z,1015.60
2022-10-28T01:31:16.725Z,1015.57
2022-10-28T01:32:16.455Z,1015.62
2022-10-28T01:33:17.314Z,1015.54
2022-10-28T01:34:17.148Z,1015.50
2022-10-28T01:35:17.003Z,1015.58
2022-10-28T01:36:16.407Z,1015.57
2022-10-28T01:37:20.237Z,1015.51
2022-10-28T01:38:16.412Z,1015.46
2022-10-28T01:39:16.365Z,1015.48
2022-10-28T01:40:16.338Z,1015.48
2022-10-28T01:41:16.329Z,1015.50
2022-10-28T01:42:16.320Z,1015.45
2022-10-28T01:43:16.309Z,1015.54
2022-10-28T01:44:16.291Z,1015.50
2022-10-28T01:45:16.287Z,1015.44
2022-10-28T01:46:16.383Z,1015.48
2022-10-28T01:47:16.280Z,1015.42
2022-10-28T01:48:16.476Z,1015.44
2022-10-28T01:49:20.112Z,1015.41
2022-10-28T01:50:16.782Z,1015.38
2022-10-28T01:51:16.223Z,1015.31
2022-10-28T01:52:16.204Z,1015.37
2022-10-28T01:53:16.173Z,1015.41
2022-10-28T01:54:16.156Z,1015.34
2022-10-28T01:55:16.163Z,1015.32
2022-10-28T01:56:16.139Z,1015.32
2022-10-28T01:57:16.255Z,1015.31
2022-10-28T01:58:16.114Z,1015.24
2022-10-28T01:59:16.085Z,1015.29
2022-10-28T02:00:16.557Z,1015.21
2022-10-28T02:01:16.198Z,1015.30
2022-10-28T02:02:20.146Z,1015.23
2022-10-28T02:03:16.079Z,1015.25
2022-10-28T02:04:16.101Z,1015.24
2022-10-28T02:05:16.030Z,1015.24
2022-10-28T02:06:15.997Z,1015.20
2022-10-28T02:07:15.997Z,1015.21
2022-10-28T02:08:15.993Z,1015.19
2022-10-28T02:09:19.739Z,1015.22
2022-10-28T02:10:15.976Z,1015.21
2022-10-28T02:11:15.939Z,1015.16
2022-10-28T02:12:15.952Z,1015.20
2022-10-28T02:13:15.912Z,1015.10
2022-10-28T02:14:16.174Z,1015.15
2022-10-28T02:15:16.794Z,1015.14
2022-10-28T02:16:15.880Z,1015.20
2022-10-28T02:17:19.732Z,1015.16
2022-10-28T02:18:15.918Z,1015.16
2022-10-28T02:19:15.841Z,1015.23
2022-10-28T02:20:15.833Z,1015.21
2022-10-28T02:21:15.913Z,1015.18
2022-10-28T02:22:15.805Z,1015.14
2022-10-28T02:23:16.614Z,1015.15
2022-10-28T02:24:15.774Z,1015.05
2022-10-28T02:25:15.764Z,1015.12
2022-10-28T02:26:15.755Z,1015.04
2022-10-28T02:27:15.835Z,1015.05
2022-10-28T02:28:15.945Z,1015.01
2022-10-28T02:29:15.715Z,1015.01
2022-10-28T02:30:15.705Z,1014.97
2022-10-28T02:31:15.676Z,1014.97
2022-10-28T02:32:15.676Z,1014.95
2022-10-28T02:33:15.707Z,1014.98
2022-10-28T02:34:15.644Z,1014.98
2022-10-28T02:35:15.637Z,1014.94
2022-10-28T02:36:16.105Z,1014.91
2022-10-28T02:37:15.597Z,1014.95
2022-10-28T02:38:15.929Z,1014.95
2022-10-28T02:39:15.610Z,1014.93
2022-10-28T02:40:15.568Z,1014.91
2022-10-28T02:41:16.521Z,1014.91
2022-10-28T02:42:15.819Z,1014.94
2022-10-28T02:43:15.527Z,1014.92
2022-10-28T02:44:15.519Z,1014.92
2022-10-28T02:45:15.626Z,1014.94
2022-10-28T02:46:15.504Z,1014.86
2022-10-28T02:47:15.546Z,1014.89
2022-10-28T02:48:16.239Z,1014.89
2022-10-28T02:49:15.472Z,1014.92
2022-10-28T02:50:15.455Z,1014.84
2022-10-28T02:51:15.538Z,1014.89
2022-10-28T02:52:15.406Z,1014.81
2022-10-28T02:53:15.435Z,1014.85
2022-10-28T02:54:15.386Z,1014.80
2022-10-28T02:55:16.331Z,1014.80
2022-10-28T02:56:15.369Z,1014.82
2022-10-28T02:57:15.379Z,1014.90
2022-10-28T02:58:15.348Z,1014.82
2022-10-28T02:59:15.326Z,1014.81
2022-10-28T03:00:15.309Z,1014.89
2022-10-28T03:01:15.686Z,1014.83
2022-10-28T03:02:15.325Z,1014.87
2022-10-28T03:03:15.535Z,1014.80
2022-10-28T03:04:15.270Z,1014.83
2022-10-28T03:05:15.246Z,1014.75
2022-10-28T03:06:15.279Z,1014.73
2022-10-28T03:07:15.219Z,1014.69
2022-10-28T03:08:15.269Z,1014.69
2022-10-28T03:09:15.311Z,1014.72
2022-10-28T03:10:15.182Z,1014.73
2022-10-28T03:11:15.252Z,1014.73
2022-10-28T03:12:15.151Z,1014.76
2022-10-28T03:13:15.138Z,1014.72
2022-10-28T03:14:15.555Z,1014.75
2022-10-28T03:15:15.512Z,1014.77
2022-10-28T03:16:15.114Z,1014.71
2022-10-28T03:17:15.386Z,1014.80
2022-10-28T03:18:15.073Z,1014.85
2022-10-28T03:19:15.361Z,1014.77
2022-10-28T03:20:15.052Z,1014.72
2022-10-28T03:21:15.064Z,1014.74
2022-10-28T03:22:15.033Z,1014.75
2022-10-28T03:23:15.004Z,1014.69
2022-10-28T03:24:15.494Z,1014.69
2022-10-28T03:25:15.525Z,1014.65
2022-10-28T03:26:14.975Z,1014.63
2022-10-28T03:27:18.900Z,1014.67
2022-10-28T03:28:14.957Z,1014.71
2022-10-28T03:29:14.926Z,1014.64
2022-10-28T03:30:14.917Z,1014.63
2022-10-28T03:31:14.907Z,1014.62
2022-10-28T03:32:15.267Z,1014.65
2022-10-28T03:33:14.927Z,1014.63
2022-10-28T03:34:14.869Z,1014.61
2022-10-28T03:35:14.887Z,1014.69
2022-10-28T03:36:14.847Z,1014.56
2022-10-28T03:37:14.844Z,1014.64
2022-10-28T03:38:14.827Z,1014.60
2022-10-28T03:39:14.912Z,1014.68
2022-10-28T03:40:14.800Z,1014.55
2022-10-28T03:41:14.783Z,1014.55
2022-10-28T03:42:14.921Z,1014.59
2022-10-28T03:43:14.907Z,1014.57
2022-10-28T03:44:14.744Z,1014.60
2022-10-28T03:45:14.842Z,1014.54
2022-10-28T03:46:14.721Z,1014.69
2022-10-28T03:47:14.705Z,1014.68
2022-10-28T03:48:15.476Z,1014.59
2022-10-28T03:49:14.804Z,1014.59
2022-10-28T03:50:14.674Z,1014.56
2022-10-28T03:51:14.764Z,1014.57
2022-10-28T03:52:14.669Z,1014.53
2022-10-28T03:53:14.621Z,1014.55
2022-10-28T03:54:15.472Z,1014.56
2022-10-28T03:55:14.774Z,1014.67
2022-10-28T03:56:15.415Z,1014.57
2022-10-28T03:57:14.615Z,1014.51
2022-10-28T03:58:14.673Z,1014.50
2022-10-28T03:59:17.770Z,1014.51
2022-10-28T04:00:15.556Z,1014.60
2022-10-28T04:01:14.606Z,1014.54
2022-10-28T04:02:14.702Z,1014.60
2022-10-28T04:03:14.548Z,1014.64
2022-10-28T04:04:14.740Z,1014.65
2022-10-28T04:05:14.471Z,1014.61
2022-10-28T04:06:14.738Z,1014.63
2022-10-28T04:07:14.708Z,1014.62
2022-10-28T04:08:14.445Z,1014.61
2022-10-28T04:09:14.579Z,1014.60
2022-10-28T04:10:14.417Z,1014.60
2022-10-28T04:11:14.671Z,1014.58
2022-10-28T04:12:14.411Z,1014.58
2022-10-28T04:13:14.384Z,1014.53
2022-10-28T04:14:14.364Z,1014.51
2022-10-28T04:15:15.034Z,1014.46
2022-10-28T04:16:14.325Z,1014.45
2022-10-28T04:17:14.325Z,1014.53
2022-10-28T04:18:14.309Z,1014.50
2022-10-28T04:19:14.328Z,1014.50
2022-10-28T04:20:15.104Z,1014.42
2022-10-28T04:21:14.385Z,1014.49
2022-10-28T04:22:15.212Z,1014.45
2022-10-28T04:23:14.270Z,1014.47
2022-10-28T04:24:14.237Z,1014.44
2022-10-28T04:26:14.201Z,1014.58
2022-10-28T04:27:14.790Z,1014.50
2022-10-28T04:28:14.177Z,1014.52
2022-10-28T04:29:14.191Z,1014.59
2022-10-28T04:30:14.157Z,1014.50
2022-10-28T04:31:14.896Z,1014.48
2022-10-28T04:32:14.661Z,1014.55
2022-10-28T04:33:14.142Z,1014.51
2022-10-28T04:34:14.414Z,1014.48
2022-10-28T04:35:14.118Z,1014.54
2022-10-28T04:36:14.338Z,1014.52
2022-10-28T04:37:18.331Z,1014.57
2022-10-28T04:38:15.558Z,1014.56
2022-10-28T04:39:14.040Z,1014.57
2022-10-28T04:40:14.049Z,1014.57
2022-10-28T04:41:14.841Z,1014.59
2022-10-28T04:42:14.020Z,1014.63
2022-10-28T04:43:14.582Z,1014.59
2022-10-28T04:44:14.386Z,1014.61
2022-10-28T04:45:14.307Z,1014.61
2022-10-28T04:46:13.936Z,1014.57
2022-10-28T04:47:13.942Z,1014.54
2022-10-28T04:48:13.917Z,1014.62
2022-10-28T04:49:13.999Z,1014.59
2022-10-28T04:50:13.972Z,1014.54
2022-10-28T04:51:13.879Z,1014.48
2022-10-28T04:52:15.735Z,1014.48
2022-10-28T04:53:13.859Z,1014.50
2022-10-28T04:54:13.856Z,1014.53
2022-10-28T04:55:13.829Z,1014.47
2022-10-28T04:56:14.031Z,1014.50
2022-10-28T04:57:14.193Z,1014.53
2022-10-28T04:58:13.880Z,1014.54
2022-10-28T04:59:13.805Z,1014.47
2022-10-28T05:00:14.262Z,1014.51
2022-10-28T05:01:13.877Z,1014.51
2022-10-28T05:02:13.954Z,1014.48
2022-10-28T05:03:13.741Z,1014.53
2022-10-28T05:04:13.730Z,1014.55
2022-10-28T05:05:13.867Z,1014.48
2022-10-28T05:06:13.684Z,1014.48
2022-10-28T05:07:14.857Z,1014.49
2022-10-28T05:08:13.954Z,1014.47
2022-10-28T05:09:14.298Z,1014.43
2022-10-28T05:10:13.764Z,1014.46
2022-10-28T05:11:13.737Z,1014.46
2022-10-28T05:12:14.568Z,1014.37
2022-10-28T05:13:13.606Z,1014.33
2022-10-28T05:14:14.453Z,1014.36
2022-10-28T05:15:14.527Z,1014.33
2022-10-28T05:16:13.559Z,1014.38
2022-10-28T05:17:13.556Z,1014.33
2022-10-28T05:18:14.490Z,1014.39
2022-10-28T05:19:14.229Z,1014.38
2022-10-28T05:20:14.035Z,1014.37
2022-10-28T05:21:13.500Z,1014.30
2022-10-28T05:22:14.149Z,1014.37
2022-10-28T05:23:14.290Z,1014.31
2022-10-28T05:24:13.501Z,1014.34
2022-10-28T05:25:14.261Z,1014.40
2022-10-28T05:26:13.819Z,1014.45
2022-10-28T05:27:13.428Z,1014.45
2022-10-28T05:28:13.408Z,1014.47
2022-10-28T05:29:13.439Z,1014.49
2022-10-28T05:30:13.403Z,1014.45
2022-10-28T05:31:13.400Z,1014.49
2022-10-28T05:32:13.407Z,1014.52
2022-10-28T05:33:13.421Z,1014.48
2022-10-28T05:34:13.401Z,1014.50
2022-10-28T05:35:13.396Z,1014.45
2022-10-28T05:36:13.306Z,1014.42
2022-10-28T05:37:13.305Z,1014.47
2022-10-28T05:38:13.390Z,1014.47
2022-10-28T05:39:13.277Z,1014.36
2022-10-28T05:40:13.388Z,1014.39
2022-10-28T05:41:13.386Z,1014.42
2022-10-28T05:42:13.216Z,1014.36
2022-10-28T05:43:13.219Z,1014.39
2022-10-28T05:44:13.438Z,1014.39
2022-10-28T05:45:13.389Z,1014.35
2022-10-28T05:46:13.181Z,1014.33
2022-10-28T05:47:16.981Z,1014.31
2022-10-28T05:48:13.225Z,1014.37
2022-10-28T05:49:13.129Z,1014.29
2022-10-28T05:50:13.156Z,1014.30
2022-10-28T05:51:13.127Z,1014.24
2022-10-28T05:52:13.382Z,1014.27
2022-10-28T05:53:13.192Z,1014.30
2022-10-28T05:54:13.395Z,1014.31
2022-10-28T05:55:13.393Z,1014.33
2022-10-28T05:56:13.384Z,1014.27
2022-10-28T05:57:13.374Z,1014.39
2022-10-28T05:58:13.384Z,1014.35
2022-10-28T05:59:13.002Z,1014.33
2022-10-28T06:00:13.123Z,1014.39
2022-10-28T06:01:13.445Z,1014.41
2022-10-28T06:02:12.994Z,1014.40
2022-10-28T06:03:13.449Z,1014.34
2022-10-28T06:04:13.258Z,1014.34
2022-10-28T06:05:13.105Z,1014.26
2022-10-28T06:06:12.914Z,1014.29
2022-10-28T06:07:13.378Z,1014.34
2022-10-28T06:08:13.392Z,1014.40
2022-10-28T06:09:13.368Z,1014.40
2022-10-28T06:10:13.840Z,1014.40
2022-10-28T06:11:11.944Z,1014.39
2022-10-28T06:12:11.467Z,1014.39
2022-10-28T06:13:11.296Z,1014.38
2022-10-28T06:14:11.518Z,1014.42
2022-10-28T06:15:11.498Z,1014.39
2022-10-28T06:16:11.849Z,1014.42
2022-10-28T06:17:11.699Z,1014.36
2022-10-28T06:18:15.414Z,1014.39
2022-10-28T06:19:12.630Z,1014.40
2022-10-28T06:20:11.639Z,1014.43
2022-10-28T06:21:12.155Z,1014.33
2022-10-28T06:22:11.316Z,1014.44
2022-10-28T06:23:12.157Z,1014.42
2022-10-28T06:24:12.827Z,1014.40
2022-10-28T06:25:11.762Z,1014.39
2022-10-28T06:26:11.513Z,1014.41
2022-10-28T06:27:11.234Z,1014.40
2022-10-28T06:28:11.408Z,1014.48
2022-10-28T06:29:11.611Z,1014.46
2022-10-28T06:30:11.539Z,1014.43
2022-10-28T06:31:11.849Z,1014.47
2022-10-28T06:32:11.848Z,1014.48
2022-10-28T06:33:11.410Z,1014.50
2022-10-28T06:34:11.417Z,1014.44
2022-10-28T06:35:11.432Z,1014.39
2022-10-28T06:36:11.979Z,1014.49
2022-10-28T06:37:12.077Z,1014.44
2022-10-28T06:38:11.937Z,1014.52
2022-10-28T06:39:10.988Z,1014.52
2022-10-28T06:40:11.042Z,1014.48
2022-10-28T06:41:11.049Z,1014.45
2022-10-28T06:42:11.072Z,1014.54
2022-10-28T06:43:11.128Z,1014.54
2022-10-28T06:44:11.125Z,1014.52
2022-10-28T06:45:11.126Z,1014.48
2022-10-28T06:46:11.177Z,1014.57
2022-10-28T06:47:12.403Z,1014.53
2022-10-28T06:48:12.514Z,1014.53
2022-10-28T06:49:12.441Z,1014.56
2022-10-28T06:50:12.398Z,1014.58
2022-10-28T06:51:12.638Z,1014.60
2022-10-28T06:52:13.708Z,1014.62
2022-10-28T06:53:12.418Z,1014.62
2022-10-28T06:54:12.528Z,1014.56
2022-10-28T06:55:12.609Z,1014.61
2022-10-28T06:56:12.732Z,1014.63
2022-10-28T06:57:12.963Z,1014.57
2022-10-28T06:58:12.630Z,1014.60
2022-10-28T06:59:12.404Z,1014.58
2022-10-28T07:00:13.193Z,1014.66
2022-10-28T07:01:12.671Z,1014.65
2022-10-28T07:02:12.878Z,1014.60
2022-10-28T07:03:12.498Z,1014.63
2022-10-28T07:04:12.403Z,1014.58
2022-10-28T07:05:12.343Z,1014.59
2022-10-28T07:07:12.601Z,1014.56
2022-10-28T07:08:12.945Z,1014.60
2022-10-28T07:09:12.138Z,1014.63
2022-10-28T07:10:12.968Z,1014.68
2022-10-28T07:11:12.493Z,1014.68
2022-10-28T07:12:12.764Z,1014.66
2022-10-28T07:13:12.191Z,1014.57
2022-10-28T07:14:12.104Z,1014.59
2022-10-28T07:15:12.195Z,1014.60
2022-10-28T07:16:12.793Z,1014.64
2022-10-28T07:17:12.457Z,1014.63
2022-10-28T07:18:12.106Z,1014.65
2022-10-28T07:19:12.402Z,1014.65
2022-10-28T07:20:12.359Z,1014.69
2022-10-28T07:21:12.940Z,1014.70
2022-10-28T07:22:12.770Z,1014.67
2022-10-28T07:23:12.925Z,1014.72
2022-10-28T07:24:12.423Z,1014.68
2022-10-28T07:25:12.756Z,1014.63
2022-10-28T07:26:12.745Z,1014.67
2022-10-28T07:27:11.925Z,1014.66
2022-10-28T07:28:12.715Z,1014.66
2022-10-28T07:29:12.199Z,1014.65
2022-10-28T07:30:12.357Z,1014.73
2022-10-28T07:31:12.271Z,1014.70
2022-10-28T07:32:12.358Z,1014.69
2022-10-28T07:33:12.791Z,1014.76
2022-10-28T07:34:12.578Z,1014.78
2022-10-28T07:35:11.811Z,1014.76
2022-10-28T07:36:11.807Z,1014.78
2022-10-28T07:37:12.313Z,1014.79
2022-10-28T07:38:11.860Z,1014.79
2022-10-28T07:39:11.782Z,1014.74
2022-10-28T07:40:11.785Z,1014.76
2022-10-28T07:41:11.920Z,1014.73
2022-10-28T07:42:11.927Z,1014.68
2022-10-28T07:43:11.755Z,1014.72
2022-10-28T07:44:11.966Z,1014.75
2022-10-28T07:45:11.987Z,1014.76
2022-10-28T07:46:12.010Z,1014.75
2022-10-28T07:47:11.667Z,1014.78
2022-10-28T07:48:11.858Z,1014.76
2022-10-28T07:49:12.121Z,1014.75
2022-10-28T07:50:12.074Z,1014.77
2022-10-28T07:51:12.136Z,1014.72
2022-10-28T07:52:12.138Z,1014.69
2022-10-28T07:53:12.047Z,1014.76
2022-10-28T07:54:13.328Z,1014.73
2022-10-28T07:55:11.928Z,1014.77
2022-10-28T07:56:12.218Z,1014.80
2022-10-28T07:57:12.141Z,1014.77
2022-10-28T07:58:11.610Z,1014.84
2022-10-28T07:59:12.456Z,1014.77
2022-10-28T08:00:12.028Z,1014.74
2022-10-28T08:01:12.269Z,1014.72
2022-10-28T08:02:12.319Z,1014.76
2022-10-28T08:03:12.000Z,1014.79
2022-10-28T08:04:11.448Z,1014.80
2022-10-28T08:05:11.577Z,1014.78
2022-10-28T08:06:11.587Z,1014.75
2022-10-28T08:07:12.366Z,1014.74
2022-10-28T08:08:12.325Z,1014.77
2022-10-28T08:09:11.884Z,1014.73
2022-10-28T08:10:11.969Z,1014.72
2022-10-28T08:11:11.344Z,1014.70
2022-10-28T08:12:12.258Z,1014.70
2022-10-28T08:13:12.366Z,1014.69
2022-10-28T08:14:12.237Z,1014.73
2022-10-28T08:15:11.291Z,1014.69
2022-10-28T08:16:11.285Z,1014.69
2022-10-28T08:17:11.271Z,1014.66
2022-10-28T08:18:11.284Z,1014.65
2022-10-28T08:19:11.267Z,1014.75
2022-10-28T08:20:11.260Z,1014.72
2022-10-28T08:21:11.259Z,1014.61
2022-10-28T08:22:11.257Z,1014.67
2022-10-28T08:23:11.164Z,1014.63
2022-10-28T08:24:11.264Z,1014.59
2022-10-28T08:25:11.258Z,1014.63
2022-10-28T08:26:11.256Z,1014.57
2022-10-28T08:27:11.258Z,1014.60
2022-10-28T08:28:11.247Z,1014.59
2022-10-28T08:29:11.258Z,1014.58
2022-10-28T08:30:11.248Z,1014.61
2022-10-28T08:31:11.248Z,1014.55
2022-10-28T08:32:11.288Z,1014.57
2022-10-28T08:33:11.030Z,1014.59
2022-10-28T08:34:11.084Z,1014.62
2022-10-28T08:35:11.004Z,1014.64
2022-10-28T08:36:11.021Z,1014.62
2022-10-28T08:37:11.202Z,1014.65
2022-10-28T08:38:11.110Z,1014.60
2022-10-28T08:39:11.136Z,1014.53
2022-10-28T08:40:11.131Z,1014.63
2022-10-28T08:41:11.067Z,1014.56
2022-10-28T08:42:11.206Z,1014.49
2022-10-28T08:43:11.003Z,1014.55
2022-10-28T08:44:11.266Z,1014.53
2022-10-28T08:45:15.446Z,1014.56
2022-10-28T08:46:11.243Z,1014.57
2022-10-28T08:47:11.238Z,1014.50
2022-10-28T08:48:11.255Z,1014.48
2022-10-28T08:49:15.120Z,1014.49
2022-10-28T08:50:10.799Z,1014.47
2022-10-28T08:51:11.242Z,1014.54
2022-10-28T08:52:10.871Z,1014.54
2022-10-28T08:53:10.901Z,1014.55
2022-10-28T08:54:10.752Z,1014.56
2022-10-28T08:55:10.871Z,1014.50
2022-10-28T08:56:11.244Z,1014.48
2022-10-28T08:57:14.516Z,1014.46
2022-10-28T08:58:11.886Z,1014.47
2022-10-28T08:59:11.228Z,1014.43
2022-10-28T09:00:10.879Z,1014.51
2022-10-28T09:01:11.317Z,1014.47
2022-10-28T09:02:10.699Z,1014.54
2022-10-28T09:03:11.009Z,1014.46
2022-10-28T09:04:10.821Z,1014.51
2022-10-28T09:05:10.871Z,1014.47
2022-10-28T09:06:10.591Z,1014.52
2022-10-28T09:07:10.611Z,1014.53
2022-10-28T09:08:10.591Z,1014.52
2022-10-28T09:09:10.581Z,1014.53
2022-10-28T09:10:10.582Z,1014.55
2022-10-28T09:11:10.584Z,1014.55
2022-10-28T09:12:11.134Z,1014.54
2022-10-28T09:13:10.722Z,1014.54
2022-10-28T09:14:10.593Z,1014.58
2022-10-28T09:15:10.610Z,1014.60
2022-10-28T09:16:13.638Z,1014.52
2022-10-28T09:17:11.864Z,1014.52
2022-10-28T09:18:10.588Z,1014.56
2022-10-28T09:19:10.596Z,1014.56
2022-10-28T09:20:10.588Z,1014.60
2022-10-28T09:21:10.549Z,1014.56
2022-10-28T09:22:10.696Z,1014.48
2022-10-28T09:23:11.331Z,1014.52
2022-10-28T09:24:10.602Z,1014.54
2022-10-28T09:25:11.414Z,1014.50
2022-10-28T09:26:10.414Z,1014.50
2022-10-28T09:27:10.600Z,1014.47
2022-10-28T09:28:10.361Z,1014.47
2022-10-28T09:29:10.483Z,1014.38
2022-10-28T09:30:11.244Z,1014.37
2022-10-28T09:31:10.602Z,1014.38
2022-10-28T09:32:10.391Z,1014.39
2022-10-28T09:33:10.593Z,1014.41
2022-10-28T09:34:10.423Z,1014.43
2022-10-28T09:35:10.225Z,1014.39
2022-10-28T09:36:10.213Z,1014.37
2022-10-28T09:37:10.243Z,1014.36
2022-10-28T09:38:10.236Z,1014.40
2022-10-28T09:39:10.245Z,1014.36
2022-10-28T09:40:10.268Z,1014.36
2022-10-28T09:41:10.178Z,1014.34
2022-10-28T09:42:10.270Z,1014.33
2022-10-28T09:43:10.230Z,1014.29
2022-10-28T09:44:10.366Z,1014.31
2022-10-28T09:45:10.386Z,1014.30
2022-10-28T09:46:10.395Z,1014.38
2022-10-28T09:47:10.422Z,1014.37
2022-10-28T09:48:10.242Z,1014.31
2022-10-28T09:49:10.439Z,1014.37
2022-10-28T09:50:10.032Z,1014.36
2022-10-28T09:51:10.271Z,1014.41
2022-10-28T09:52:13.961Z,1014.43
2022-10-28T09:53:11.193Z,1014.47
2022-10-28T09:54:10.415Z,1014.46
2022-10-28T09:55:10.565Z,1014.46
2022-10-28T09:56:10.579Z,1014.42
2022-10-28T09:57:11.542Z,1014.42
2022-10-28T09:58:10.365Z,1014.47
2022-10-28T09:59:10.214Z,1014.43
2022-10-28T10:00:10.126Z,1014.48
2022-10-28T10:01:10.157Z,1014.47
2022-10-28T10:02:10.887Z,1014.42
2022-10-28T10:03:10.823Z,1014.48
2022-10-28T10:04:09.918Z,1014.51
2022-10-28T10:05:14.608Z,1014.45
2022-10-28T10:06:10.892Z,1014.49
2022-10-28T10:07:10.135Z,1014.47
2022-10-28T10:08:09.808Z,1014.48
2022-10-28T10:09:10.580Z,1014.48
2022-10-28T10:10:10.663Z,1014.47
2022-10-28T10:11:09.871Z,1014.45
2022-10-28T10:12:10.225Z,1014.51
2022-10-28T10:13:09.781Z,1014.44
2022-10-28T10:14:12.761Z,1014.46
2022-10-28T10:15:09.896Z,1014.48
2022-10-28T10:16:10.135Z,1014.44
2022-10-28T10:17:09.852Z,1014.49
2022-10-28T10:18:10.522Z,1014.46
2022-10-28T10:19:09.655Z,1014.49
2022-10-28T10:20:09.662Z,1014.50
2022-10-28T10:21:09.674Z,1014.56
2022-10-28T10:22:09.635Z,1014.49
2022-10-28T10:23:09.714Z,1014.48
2022-10-28T10:24:09.736Z,1014.47
2022-10-28T10:25:09.584Z,1014.49
2022-10-28T10:26:12.186Z,1014.48
2022-10-28T10:27:09.805Z,1014.49
2022-10-28T10:28:09.809Z,1014.47
2022-10-28T10:29:09.540Z,1014.39
2022-10-28T10:30:09.567Z,1014.38
2022-10-28T10:31:09.526Z,1014.42
2022-10-28T10:32:09.489Z,1014.41
2022-10-28T10:33:09.889Z,1014.44
2022-10-28T10:34:09.481Z,1014.42
2022-10-28T10:35:09.993Z,1014.39
2022-10-28T10:36:09.652Z,1014.41
2022-10-28T10:37:09.430Z,1014.41
2022-10-28T10:38:09.432Z,1014.41
2022-10-28T10:39:09.433Z,1014.37
2022-10-28T10:40:09.455Z,1014.40
2022-10-28T10:41:09.469Z,1014.42
2022-10-28T10:42:09.498Z,1014.39
2022-10-28T10:43:14.082Z,1014.39
2022-10-28T10:44:09.557Z,1014.46
2022-10-28T10:45:09.560Z,1014.37
2022-10-28T10:46:09.595Z,1014.33
2022-10-28T10:47:10.280Z,1014.39
2022-10-28T10:48:09.457Z,1014.36
2022-10-28T10:49:09.652Z,1014.38
2022-10-28T10:50:09.351Z,1014.39
2022-10-28T10:51:10.196Z,1014.39
2022-10-28T10:52:09.641Z,1014.41
2022-10-28T10:53:10.176Z,1014.37
2022-10-28T10:54:09.584Z,1014.37
2022-10-28T10:55:09.591Z,1014.33
2022-10-28T10:56:09.764Z,1014.34
2022-10-28T10:57:09.170Z,1014.38
2022-10-28T10:58:09.167Z,1014.37
2022-10-28T10:59:09.148Z,1014.37
2022-10-28T11:00:09.155Z,1014.35
2022-10-28T11:01:09.171Z,1014.34
2022-10-28T11:02:09.267Z,1014.30
2022-10-28T11:03:09.120Z,1014.29
2022-10-28T11:04:09.144Z,1014.28
2022-10-28T11:05:09.127Z,1014.24
2022-10-28T11:06:23.116Z,1014.23
2022-10-28T11:07:10.855Z,1014.26
2022-10-28T11:08:09.127Z,1014.24
2022-10-28T11:09:09.056Z,1014.24
2022-10-28T11:10:09.390Z,1014.23
2022-10-28T11:11:09.080Z,1014.27
2022-10-28T11:12:09.123Z,1014.25
2022-10-28T11:13:09.132Z,1014.25
2022-10-28T11:14:08.987Z,1014.23
2022-10-28T11:15:08.947Z,1014.35
2022-10-28T11:16:09.128Z,1014.32
2022-10-28T11:17:09.123Z,1014.31
2022-10-28T11:18:09.139Z,1014.29
2022-10-28T11:19:09.123Z,1014.30
2022-10-28T11:20:08.895Z,1014.30
2022-10-28T11:21:09.037Z,1014.28
2022-10-28T11:22:09.812Z,1014.26
2022-10-28T11:23:08.912Z,1014.31
2022-10-28T11:24:09.707Z,1014.27
2022-10-28T11:25:09.116Z,1014.28
2022-10-28T11:26:09.750Z,1014.25
2022-10-28T11:27:09.007Z,1014.18
2022-10-28T11:28:09.719Z,1014.17
2022-10-28T11:29:09.089Z,1014.15
2022-10-28T11:30:09.115Z,1014.16
2022-10-28T11:31:09.056Z,1014.13
2022-10-28T11:32:08.726Z,1014.14
2022-10-28T11:33:28.964Z,1014.11
2022-10-28T11:34:10.131Z,1014.09
2022-10-28T11:35:08.781Z,1014.08
2022-10-28T11:36:08.983Z,1013.99
2022-10-28T11:37:08.846Z,1014.05
2022-10-28T11:38:08.666Z,1014.01
2022-10-28T11:39:08.706Z,1014.04
2022-10-28T11:40:08.714Z,1014.06
2022-10-28T11:41:08.727Z,1013.99
2022-10-28T11:42:08.761Z,1014.04
2022-10-28T11:43:08.576Z,1013.99
2022-10-28T11:44:08.816Z,1014.05
2022-10-28T11:45:08.567Z,1014.04
2022-10-28T11:46:08.871Z,1014.06
2022-10-28T11:47:08.542Z,1014.04
2022-10-28T11:48:08.903Z,1014.07
2022-10-28T11:49:08.911Z,1014.02
2022-10-28T11:50:08.932Z,1014.03
2022-10-28T11:51:08.579Z,1014.05
2022-10-28T11:52:08.681Z,1014.04
2022-10-28T11:53:08.472Z,1013.97
2022-10-28T11:54:08.651Z,1013.95
2022-10-28T11:55:08.603Z,1013.97
2022-10-28T11:56:09.062Z,1013.94
2022-10-28T11:57:08.424Z,1013.97
2022-10-28T11:58:09.389Z,1013.97
2022-10-28T11:59:08.962Z,1013.88
2022-10-28T12:00:09.095Z,1013.90
2022-10-28T12:01:08.913Z,1013.86
2022-10-28T12:02:08.924Z,1013.82
2022-10-28T12:03:08.680Z,1013.86
2022-10-28T12:04:08.595Z,1013.87
2022-10-28T12:05:08.990Z,1013.81
2022-10-28T12:06:08.592Z,1013.81
2022-10-28T12:07:09.227Z,1013.75